Terminal Aerodrome Forecast
Issued by NWS Nashville, TN

Home | Current Version | Previous Version | Text Only | Print | Product List | Glossary On
Versions: 1 2 3 4 5 6 7 8 9 10 11 12 13 14 15 16 17 18 19 20 21 22 23 24 25 26 27 28 29 30
390
FTUS44 KOHX 051737
TAFBNA
TAF
KBNA 051737Z 0518/0618 04006KT P6SM OVC008
     FM052100 08006KT 6SM -SHRA BR OVC013
     FM060000 11005KT 3SM SHRA BR OVC007
     FM061200 26008KT 5SM -SHRA BR OVC012=

USA.gov is the U.S. government's official web portal to all federal, state and local government web resources and services.